createdAt,value
2023-03-14T00:06:48.614Z,7.08
2023-03-14T00:10:30.248Z,3.27
2023-03-14T00:14:12.019Z,5.26
2023-03-14T00:17:53.725Z,2.57
2023-03-14T00:21:35.475Z,3.13
2023-03-14T00:25:17.213Z,4.70
2023-03-14T00:28:59.080Z,4.10
2023-03-14T00:32:40.781Z,2.30
2023-03-14T00:36:22.290Z,3.04
2023-03-14T00:40:03.950Z,2.19
2023-03-14T00:43:45.824Z,4.31
2023-03-14T00:47:27.664Z,5.04
2023-03-14T00:51:09.497Z,4.93
2023-03-14T00:54:51.450Z,8.12
2023-03-14T00:58:33.387Z,7.87
2023-03-14T01:02:15.323Z,9.10
2023-03-14T01:05:57.138Z,7.52
2023-03-14T01:09:38.937Z,7.26
2023-03-14T01:13:20.850Z,6.62
2023-03-14T01:17:02.734Z,6.59
2023-03-14T01:20:44.722Z,5.57
2023-03-14T01:24:26.624Z,7.61
2023-03-14T01:28:08.559Z,6.33
2023-03-14T01:31:50.483Z,5.83
2023-03-14T01:35:32.107Z,3.07
2023-03-14T01:39:13.803Z,3.40
2023-03-14T01:42:55.532Z,3.50
2023-03-14T01:46:37.299Z,3.96
2023-03-14T01:53:59.092Z,4.00
2023-03-14T01:57:40.837Z,6.09
2023-03-14T02:01:22.563Z,2.83
2023-03-14T02:12:24.151Z,0.00
2023-03-14T02:23:25.887Z,0.00
2023-03-14T02:30:47.507Z,1.96
2023-03-14T02:41:49.391Z,0.00
2023-03-14T02:52:50.985Z,0.00
2023-03-14T02:56:32.583Z,1.90
2023-03-14T03:00:14.215Z,3.56
2023-03-14T03:03:55.749Z,2.74
2023-03-14T03:07:37.336Z,3.18
2023-03-14T03:18:39.083Z,0.00
2023-03-14T03:29:40.803Z,0.00
2023-03-14T03:40:42.666Z,0.00
2023-03-14T03:51:44.267Z,0.00
2023-03-14T04:02:46.110Z,0.00
2023-03-14T04:10:07.749Z,2.93
2023-03-14T04:13:49.385Z,3.79
2023-03-14T04:21:11.266Z,4.33
2023-03-14T04:24:52.722Z,3.89
2023-03-14T04:28:34.298Z,2.19
2023-03-14T04:32:15.922Z,3.85
2023-03-14T04:36:03.580Z,2.28
2023-03-14T04:39:45.289Z,6.43
2023-03-14T04:43:26.768Z,2.09
2023-03-14T04:47:08.408Z,2.75
2023-03-14T04:54:30.041Z,2.09
2023-03-14T05:05:31.872Z,3.73
2023-03-14T05:12:53.503Z,2.09
2023-03-14T05:16:35.228Z,3.70
2023-03-14T05:20:16.730Z,5.76
2023-03-14T05:23:58.449Z,4.76
2023-03-14T05:27:40.067Z,5.22
2023-03-14T05:31:21.967Z,8.14
2023-03-14T05:35:03.598Z,6.01
2023-03-14T05:38:45.179Z,2.22
2023-03-14T05:46:07.022Z,3.50
2023-03-14T05:49:48.749Z,6.05
2023-03-14T05:53:30.449Z,6.04
2023-03-14T05:57:12.125Z,4.68
2023-03-14T06:00:53.711Z,3.96
2023-03-14T06:04:35.410Z,2.88
2023-03-14T06:08:18.119Z,3.45
2023-03-14T06:11:58.763Z,5.02
2023-03-14T06:15:40.458Z,4.66
2023-03-14T06:19:22.186Z,3.69
2023-03-14T06:23:03.955Z,5.55
2023-03-14T06:26:45.716Z,6.95
2023-03-14T06:30:27.480Z,8.12
2023-03-14T06:34:09.183Z,3.63
2023-03-14T06:37:50.878Z,5.67
2023-03-14T06:41:32.475Z,2.35
2023-03-14T06:48:54.137Z,2.87
2023-03-14T06:52:35.881Z,4.26
2023-03-14T06:56:17.377Z,2.09
2023-03-14T06:59:59.209Z,4.25
2023-03-14T07:03:40.861Z,5.69
2023-03-14T07:07:22.675Z,5.94
2023-03-14T07:11:04.478Z,5.15
2023-03-14T07:14:46.151Z,3.63
2023-03-14T07:18:27.899Z,4.23
2023-03-14T07:22:09.640Z,5.12
2023-03-14T07:25:51.283Z,2.99
2023-03-14T07:29:32.997Z,3.43
2023-03-14T07:33:14.631Z,3.29
2023-03-14T07:36:56.232Z,2.35
2023-03-14T07:40:37.895Z,3.87
2023-03-14T07:44:19.482Z,2.09
2023-03-14T07:48:01.133Z,4.05
2023-03-14T07:51:42.700Z,2.29
2023-03-14T07:55:24.492Z,4.03
2023-03-14T07:59:06.030Z,3.46
2023-03-14T08:02:47.827Z,2.48
2023-03-14T08:06:29.316Z,2.48
2023-03-14T08:10:10.934Z,4.36
2023-03-14T08:21:12.839Z,4.52
2023-03-14T08:24:54.417Z,4.37
2023-03-14T08:28:36.041Z,4.98
2023-03-14T08:32:17.710Z,6.28
2023-03-14T08:35:59.379Z,3.68
2023-03-14T08:39:40.995Z,3.87
2023-03-14T08:47:02.800Z,3.65
2023-03-14T08:54:24.417Z,2.77
2023-03-14T08:58:06.035Z,4.49
2023-03-14T09:01:47.708Z,3.69
2023-03-14T09:05:29.298Z,2.38
2023-03-14T09:09:10.939Z,5.55
2023-03-14T09:12:52.570Z,3.04
2023-03-14T09:16:34.222Z,2.93
2023-03-14T09:20:15.760Z,2.28
2023-03-14T09:23:57.572Z,4.13
2023-03-14T09:27:39.328Z,6.02
2023-03-14T09:31:21.045Z,3.39
2023-03-14T09:35:02.851Z,5.99
2023-03-14T09:38:44.477Z,5.73
2023-03-14T09:42:27.070Z,2.87
2023-03-14T09:46:08.748Z,3.44
2023-03-14T09:49:50.290Z,3.72
2023-03-14T09:53:31.988Z,2.81
2023-03-14T09:57:13.648Z,3.25
2023-03-14T10:00:55.421Z,5.65
2023-03-14T10:04:36.967Z,1.70
2023-03-14T10:15:38.722Z,2.64
2023-03-14T10:23:00.354Z,2.48
2023-03-14T10:34:02.205Z,0.00
2023-03-14T10:45:03.853Z,0.00
2023-03-14T10:56:05.622Z,0.00
2023-03-14T11:07:07.373Z,0.00
2023-03-14T11:18:09.130Z,0.00
2023-03-14T11:29:10.847Z,0.00
2023-03-14T11:36:32.527Z,2.48
2023-03-14T11:40:14.240Z,2.48
2023-03-14T11:43:55.750Z,2.03
2023-03-14T11:47:37.364Z,2.76
2023-03-14T11:58:39.172Z,0.00
2023-03-14T12:09:40.938Z,0.00
2023-03-14T12:20:42.811Z,2.66
2023-03-14T12:24:24.399Z,6.59
2023-03-14T12:28:06.230Z,4.99
2023-03-14T12:31:48.097Z,3.39
2023-03-14T12:35:29.757Z,4.35
2023-03-14T12:39:11.585Z,6.21
2023-03-14T12:42:53.376Z,5.37
2023-03-14T12:46:35.140Z,7.89
2023-03-14T12:50:16.847Z,6.44
2023-03-14T12:53:58.729Z,5.56
2023-03-14T12:57:40.696Z,8.11
2023-03-14T13:01:22.647Z,14.66
2023-03-14T13:05:04.474Z,8.15
2023-03-14T13:08:46.352Z,5.58
2023-03-14T13:12:28.196Z,6.36
2023-03-14T13:16:10.142Z,5.41
2023-03-14T13:19:51.773Z,9.33
2023-03-14T13:23:33.614Z,7.32
2023-03-14T13:27:15.411Z,8.02
2023-03-14T13:30:57.433Z,8.70
2023-03-14T13:34:39.088Z,5.29
2023-03-14T13:38:20.861Z,8.71
2023-03-14T13:42:02.689Z,8.07
2023-03-14T13:45:44.357Z,5.08
2023-03-14T13:49:26.257Z,7.57
2023-03-14T13:53:08.023Z,6.58
2023-03-14T13:56:49.767Z,4.69
2023-03-14T14:00:31.484Z,5.69
2023-03-14T14:04:13.455Z,7.15
2023-03-14T14:07:55.520Z,10.19
2023-03-14T14:11:47.112Z,9.34
2023-03-14T14:15:19.237Z,6.88
2023-03-14T14:19:01.128Z,7.58
2023-03-14T14:22:43.096Z,10.63
2023-03-14T14:26:24.980Z,8.86
2023-03-14T14:30:07.021Z,5.73
2023-03-14T14:33:48.665Z,5.18
2023-03-14T14:37:30.329Z,2.95
2023-03-14T14:41:12.188Z,4.42
2023-03-14T14:44:53.876Z,4.81
2023-03-14T14:48:35.679Z,4.83
2023-03-14T14:52:17.410Z,5.35
2023-03-14T14:55:59.110Z,4.87
2023-03-14T14:59:40.863Z,4.97
2023-03-14T15:03:22.593Z,6.59
2023-03-14T15:07:04.321Z,3.39
2023-03-14T15:10:46.194Z,5.05
2023-03-14T15:14:28.096Z,6.32
2023-03-14T15:18:09.832Z,4.08
2023-03-14T15:21:51.461Z,2.69
2023-03-14T15:25:53.631Z,3.74
2023-03-14T15:29:14.919Z,3.79
2023-03-14T15:32:56.925Z,6.14
2023-03-14T15:36:38.527Z,3.76
2023-03-14T15:40:20.240Z,3.87
2023-03-14T15:44:02.130Z,4.46
2023-03-14T15:47:43.787Z,3.09
2023-03-14T15:58:45.707Z,3.91
2023-03-14T16:02:27.391Z,2.61
2023-03-14T16:13:29.116Z,0.00
2023-03-14T16:24:30.894Z,0.00
2023-03-14T16:35:32.795Z,0.00
2023-03-14T16:46:34.891Z,0.00
2023-03-14T16:57:36.473Z,0.00
2023-03-14T17:08:38.696Z,4.75
2023-03-14T17:12:20.764Z,4.35
2023-03-14T17:16:02.910Z,5.63
2023-03-14T17:19:44.723Z,3.74
2023-03-14T17:23:26.566Z,3.13
2023-03-14T17:27:08.256Z,4.13
2023-03-14T17:38:10.150Z,4.08
2023-03-14T17:41:52.063Z,4.06
2023-03-14T17:52:54.076Z,0.00
2023-03-14T18:03:56.075Z,2.35
2023-03-14T18:14:58.033Z,0.00
2023-03-14T18:26:00.587Z,0.00
2023-03-14T18:29:42.396Z,3.27
2023-03-14T18:33:24.458Z,3.81
2023-03-14T18:37:06.510Z,3.62
2023-03-14T18:40:48.475Z,3.14
2023-03-14T18:44:30.256Z,4.06
2023-03-14T18:48:12.138Z,5.30
2023-03-14T18:51:54.041Z,2.86
2023-03-14T18:55:35.913Z,3.25
2023-03-14T18:59:17.896Z,4.79
2023-03-14T19:02:59.805Z,3.51
2023-03-14T19:06:41.772Z,3.11
2023-03-14T19:10:23.611Z,3.31
2023-03-14T19:21:25.581Z,0.00
2023-03-14T19:25:07.304Z,3.63
2023-03-14T19:28:49.185Z,2.29
2023-03-14T19:39:51.253Z,0.00
2023-03-14T19:43:32.968Z,2.28
2023-03-14T19:54:34.863Z,0.00
2023-03-14T20:05:36.852Z,0.00
2023-03-14T20:16:39.053Z,0.00
2023-03-14T20:27:41.158Z,0.00
2023-03-14T20:35:03.057Z,2.86
2023-03-14T20:46:05.045Z,0.00
2023-03-14T20:49:47.085Z,6.94
2023-03-14T20:57:09.125Z,8.76
2023-03-14T21:00:51.233Z,6.11
2023-03-14T21:04:33.344Z,5.60
2023-03-14T21:08:15.049Z,5.85
2023-03-14T21:19:16.956Z,0.00
2023-03-14T21:30:18.616Z,0.00
2023-03-14T21:41:20.370Z,0.00
2023-03-14T21:52:22.102Z,0.00
2023-03-14T21:59:43.893Z,2.09
2023-03-14T22:10:45.599Z,3.25
2023-03-14T22:21:47.346Z,0.00
2023-03-14T22:25:28.882Z,2.09
2023-03-14T22:29:10.459Z,1.70
2023-03-14T22:40:12.250Z,0.00
2023-03-14T22:51:13.949Z,4.73
2023-03-14T23:02:15.704Z,4.02
2023-03-14T23:05:57.282Z,2.77
2023-03-14T23:09:38.856Z,1.96
2023-03-14T23:13:20.447Z,2.59
2023-03-14T23:20:42.107Z,2.48
2023-03-14T23:24:23.680Z,3.19
2023-03-14T23:35:25.460Z,3.25
2023-03-14T23:39:07.062Z,2.67
2023-03-14T23:50:08.871Z,4.22
2023-03-14T23:53:50.439Z,2.64
